Time,TemperatureF,DewpointF,PressureIn,WindDirection,WindDirectionDegrees,WindSpeedMPH,WindSpeedGustMPH,Humidity,HourlyPrecipIn,Conditions,Clouds,dailyrainin,SoftwareType,DateUTC
2013-05-09 00:02:00,53.3,50.9,29.94,NNE,23,0.4,0.9,92,0.00,,,0.00,WUHU216HW,2013-05-09 04:02:00,
2013-05-09 00:07:00,53.3,51.3,29.93,NNE,23,0.4,0.9,93,0.00,,,0.00,WUHU216HW,2013-05-09 04:07:00,
2013-05-09 00:12:00,53.5,51.1,29.93,NNE,23,0.0,0.9,92,0.00,,,0.00,WUHU216HW,2013-05-09 04:12:00,
2013-05-09 00:17:00,53.5,51.5,29.93,NNE,23,0.0,0.7,93,0.00,,,0.00,WUHU216HW,2013-05-09 04:17:00,
2013-05-09 00:22:00,53.5,51.5,29.93,North,0,0.0,0.4,93,0.00,,,0.00,WUHU216HW,2013-05-09 04:22:00,
2013-05-09 00:27:00,53.5,51.5,29.93,North,0,0.0,0.7,93,0.00,,,0.00,WUHU216HW,2013-05-09 04:27:00,
2013-05-09 00:32:00,53.5,51.5,29.93,North,0,0.4,0.7,93,0.00,,,0.00,WUHU216HW,2013-05-09 04:32:00,
2013-05-09 00:37:00,53.5,51.5,29.93,SE,135,0.0,1.3,93,0.00,,,0.00,WUHU216HW,2013-05-09 04:37:00,
2013-05-09 00:42:00,53.6,51.7,29.93,ESE,113,0.0,1.3,93,0.00,,,0.00,WUHU216HW,2013-05-09 04:42:00,
2013-05-09 00:47:00,53.6,51.7,29.93,NE,45,0.4,2.7,93,0.00,,,0.00,WUHU216HW,2013-05-09 04:47:00,
2013-05-09 00:52:00,53.6,51.7,29.92,SSE,158,0.9,2.7,93,0.00,,,0.00,WUHU216HW,2013-05-09 04:52:00,
2013-05-09 00:58:00,53.6,51.7,29.92,NE,45,1.8,1.8,93,0.00,,,0.00,WUHU216HW,2013-05-09 04:58:00,
2013-05-09 01:03:00,53.6,51.7,29.92,NE,45,0.9,1.8,93,0.00,,,0.00,WUHU216HW,2013-05-09 05:03:00,
2013-05-09 01:08:00,53.6,51.7,29.92,NE,45,0.0,1.6,93,0.00,,,0.00,WUHU216HW,2013-05-09 05:08:00,
2013-05-09 01:13:00,53.6,51.7,29.92,NE,45,0.4,1.1,93,0.00,,,0.00,WUHU216HW,2013-05-09 05:13:00,
2013-05-09 01:18:00,53.6,51.7,29.92,ENE,68,0.0,1.3,93,0.00,,,0.00,WUHU216HW,2013-05-09 05:18:00,
2013-05-09 01:23:00,53.5,51.5,29.92,ENE,68,0.0,1.3,93,0.00,,,0.00,WUHU216HW,2013-05-09 05:23:00,
2013-05-09 01:28:00,53.5,51.5,29.91,NNE,23,0.4,1.1,93,0.00,,,0.00,WUHU216HW,2013-05-09 05:28:00,
2013-05-09 01:33:00,53.5,51.5,29.92,NNE,23,0.2,1.1,93,0.00,,,0.00,WUHU216HW,2013-05-09 05:33:00,
2013-05-09 01:38:00,53.5,51.5,29.92,NNE,23,0.2,2.2,93,0.00,,,0.00,WUHU216HW,2013-05-09 05:38:00,
2013-05-09 01:43:00,53.6,51.7,29.91,NNE,23,0.0,2.2,93,0.00,,,0.00,WUHU216HW,2013-05-09 05:43:00,
2013-05-09 01:48:00,53.6,51.7,29.91,NNE,23,0.2,1.8,93,0.00,,,0.00,WUHU216HW,2013-05-09 05:48:00,
2013-05-09 01:53:00,53.6,51.7,29.91,NNE,23,0.0,1.1,93,0.00,,,0.00,WUHU216HW,2013-05-09 05:53:00,
2013-05-09 01:58:00,53.6,51.7,29.91,NNE,23,1.1,1.1,93,0.00,,,0.00,WUHU216HW,2013-05-09 05:58:00,
2013-05-09 02:03:00,53.6,51.7,29.91,NW,315,0.4,1.1,93,0.00,,,0.00,WUHU216HW,2013-05-09 06:03:00,
2013-05-09 02:08:00,53.6,51.7,29.91,NNE,23,0.4,1.1,93,0.00,,,0.00,WUHU216HW,2013-05-09 06:08:00,
2013-05-09 02:13:00,53.6,51.7,29.91,ENE,68,0.4,1.1,93,0.00,,,0.00,WUHU216HW,2013-05-09 06:13:00,
2013-05-09 02:18:00,53.6,51.7,29.90,ENE,68,1.1,1.1,93,0.00,,,0.00,WUHU216HW,2013-05-09 06:18:00,
2013-05-09 02:23:00,53.6,51.7,29.90,ENE,68,0.0,1.1,93,0.00,,,0.00,WUHU216HW,2013-05-09 06:23:00,
2013-05-09 02:28:00,53.6,51.9,29.90,ENE,68,0.4,0.4,94,0.00,,,0.00,WUHU216HW,2013-05-09 06:28:00,
2013-05-09 02:33:00,53.8,52.1,29.90,ENE,68,0.0,0.4,94,0.00,,,0.00,WUHU216HW,2013-05-09 06:33:00,
2013-05-09 02:38:00,53.8,52.1,29.90,NNE,23,0.4,2.5,94,0.00,,,0.00,WUHU216HW,2013-05-09 06:38:00,
2013-05-09 02:43:00,53.8,52.1,29.90,NE,45,0.0,2.5,94,0.00,,,0.00,WUHU216HW,2013-05-09 06:43:00,
2013-05-09 02:48:00,53.6,51.9,29.90,NE,45,0.0,2.2,94,0.00,,,0.00,WUHU216HW,2013-05-09 06:48:00,
2013-05-09 02:53:00,53.6,51.9,29.90,NNE,23,0.9,2.0,94,0.00,,,0.00,WUHU216HW,2013-05-09 06:53:00,
2013-05-09 02:58:00,53.6,51.9,29.90,NNE,23,1.3,2.0,94,0.00,,,0.00,WUHU216HW,2013-05-09 06:58:00,
2013-05-09 03:03:00,53.6,51.9,29.90,NNE,23,0.9,1.3,94,0.00,,,0.00,WUHU216HW,2013-05-09 07:03:00,
2013-05-09 03:08:00,53.6,51.9,29.90,NNE,23,0.0,1.1,94,0.00,,,0.00,WUHU216HW,2013-05-09 07:08:00,
2013-05-09 03:13:00,53.6,51.9,29.89,NNE,23,0.0,0.9,94,0.00,,,0.00,WUHU216HW,2013-05-09 07:13:00,
2013-05-09 03:18:00,53.5,51.8,29.89,NNE,23,0.0,0.9,94,0.00,,,0.00,WUHU216HW,2013-05-09 07:18:00,
2013-05-09 03:23:00,53.5,51.8,29.89,NNE,23,1.1,1.1,94,0.00,,,0.00,WUHU216HW,2013-05-09 07:23:00,
2013-05-09 03:28:00,53.3,51.6,29.89,SSE,158,0.0,1.3,94,0.00,,,0.00,WUHU216HW,2013-05-09 07:28:00,
2013-05-09 03:33:00,53.3,51.6,29.89,SSE,158,0.4,1.3,94,0.00,,,0.00,WUHU216HW,2013-05-09 07:33:00,
2013-05-09 03:38:00,53.3,51.6,29.89,East,90,0.0,1.1,94,0.00,,,0.00,WUHU216HW,2013-05-09 07:38:00,
2013-05-09 03:43:00,53.3,51.6,29.89,North,0,0.4,1.3,94,0.00,,,0.00,WUHU216HW,2013-05-09 07:43:00,
2013-05-09 03:48:00,53.1,51.4,29.88,NNW,338,0.4,2.5,94,0.00,,,0.00,WUHU216HW,2013-05-09 07:48:00,
2013-05-09 03:53:00,53.1,51.4,29.88,North,0,0.0,2.5,94,0.00,,,0.00,WUHU216HW,2013-05-09 07:53:00,
2013-05-09 03:58:00,53.1,51.4,29.88,North,0,0.7,2.0,94,0.00,,,0.00,WUHU216HW,2013-05-09 07:58:00,
2013-05-09 04:03:00,53.1,51.4,29.88,NNE,23,0.4,0.9,94,0.00,,,0.00,WUHU216HW,2013-05-09 08:03:00,
2013-05-09 04:08:00,53.1,51.4,29.88,East,90,0.4,2.2,94,0.00,,,0.00,WUHU216HW,2013-05-09 08:08:00,
2013-05-09 04:13:00,52.9,51.2,29.88,NNE,23,0.9,2.2,94,0.00,,,0.00,WUHU216HW,2013-05-09 08:13:00,
2013-05-09 04:18:00,52.9,51.2,29.88,NNE,23,0.0,1.3,94,0.00,,,0.00,WUHU216HW,2013-05-09 08:18:00,
2013-05-09 04:23:00,52.9,51.2,29.88,NNE,23,0.4,0.9,94,0.00,,,0.00,WUHU216HW,2013-05-09 08:23:00,
2013-05-09 04:28:00,52.9,51.2,29.88,NE,45,1.8,2.5,94,0.00,,,0.00,WUHU216HW,2013-05-09 08:28:00,
2013-05-09 04:33:00,52.9,51.2,29.88,NNW,338,0.0,2.5,94,0.00,,,0.00,WUHU216HW,2013-05-09 08:33:00,
2013-05-09 04:38:00,52.9,51.2,29.87,North,0,1.6,1.6,94,0.00,,,0.00,WUHU216HW,2013-05-09 08:38:00,
2013-05-09 04:44:00,52.9,51.2,29.87,NNE,23,0.9,1.6,94,0.00,,,0.00,WUHU216HW,2013-05-09 08:44:00,
2013-05-09 04:49:00,52.9,51.2,29.87,NE,45,0.4,1.6,94,0.00,,,0.00,WUHU216HW,2013-05-09 08:49:00,
2013-05-09 04:54:00,52.9,51.2,29.87,ENE,68,0.9,1.8,94,0.00,,,0.00,WUHU216HW,2013-05-09 08:54:00,
2013-05-09 04:59:00,52.9,51.2,29.88,ENE,68,0.0,1.8,94,0.00,,,0.00,WUHU216HW,2013-05-09 08:59:00,
2013-05-09 05:04:00,52.9,51.2,29.87,North,0,0.2,1.3,94,0.00,,,0.00,WUHU216HW,2013-05-09 09:04:00,
2013-05-09 05:09:00,52.9,51.2,29.87,North,0,0.4,1.6,94,0.00,,,0.00,WUHU216HW,2013-05-09 09:09:00,
2013-05-09 05:14:00,52.7,51.0,29.87,North,0,0.7,2.2,94,0.00,,,0.00,WUHU216HW,2013-05-09 09:14:00,
2013-05-09 05:19:00,52.9,51.2,29.87,NE,45,0.7,2.2,94,0.00,,,0.00,WUHU216HW,2013-05-09 09:19:00,
2013-05-09 05:24:00,52.7,51.0,29.87,NE,45,0.0,1.8,94,0.00,,,0.00,WUHU216HW,2013-05-09 09:24:00,
2013-05-09 05:29:00,52.9,51.5,29.88,NE,45,0.0,1.8,95,0.00,,,0.00,WUHU216HW,2013-05-09 09:29:00,
2013-05-09 05:34:00,52.9,51.5,29.88,NNW,338,0.7,1.8,95,0.00,,,0.00,WUHU216HW,2013-05-09 09:34:00,
2013-05-09 05:39:00,52.9,51.5,29.88,NE,45,0.9,2.5,95,0.00,,,0.00,WUHU216HW,2013-05-09 09:39:00,
2013-05-09 05:44:00,52.9,51.5,29.88,NE,45,0.4,2.5,95,0.00,,,0.00,WUHU216HW,2013-05-09 09:44:00,
2013-05-09 05:49:00,52.9,51.5,29.88,NE,45,0.4,0.4,95,0.00,,,0.00,WUHU216HW,2013-05-09 09:49:00,
2013-05-09 05:54:00,52.9,51.5,29.87,NE,45,0.7,0.7,95,0.00,,,0.00,WUHU216HW,2013-05-09 09:54:00,
2013-05-09 05:59:00,52.9,51.5,29.87,NNE,23,1.3,1.3,95,0.00,,,0.00,WUHU216HW,2013-05-09 09:59:00,
2013-05-09 06:04:00,52.9,51.5,29.87,NNE,23,0.9,2.0,95,0.00,,,0.00,WUHU216HW,2013-05-09 10:04:00,
2013-05-09 06:09:00,52.9,51.5,29.88,NE,45,1.6,2.0,95,0.00,,,0.00,WUHU216HW,2013-05-09 10:09:00,
2013-05-09 06:14:00,52.9,51.5,29.88,NE,45,0.9,1.6,95,0.00,,,0.00,WUHU216HW,2013-05-09 10:14:00,
2013-05-09 06:19:00,52.9,51.5,29.88,NE,45,0.0,0.9,95,0.00,,,0.00,WUHU216HW,2013-05-09 10:19:00,
2013-05-09 06:24:00,52.9,51.5,29.88,NE,45,0.0,0.4,95,0.00,,,0.00,WUHU216HW,2013-05-09 10:24:00,
2013-05-09 06:29:00,52.9,51.5,29.88,NE,45,0.0,0.4,95,0.00,,,0.00,WUHU216HW,2013-05-09 10:29:00,
2013-05-09 06:34:00,52.9,51.5,29.88,NE,45,0.0,0.4,95,0.00,,,0.00,WUHU216HW,2013-05-09 10:34:00,
2013-05-09 06:39:00,53.1,51.7,29.88,NE,45,0.4,0.4,95,0.00,,,0.00,WUHU216HW,2013-05-09 10:39:00,
2013-05-09 06:44:00,53.1,51.7,29.88,NE,45,0.0,0.4,95,0.00,,,0.00,WUHU216HW,2013-05-09 10:44:00,
2013-05-09 06:49:00,53.3,51.8,29.88,WNW,293,0.0,1.1,95,0.00,,,0.00,WUHU216HW,2013-05-09 10:49:00,
2013-05-09 06:54:00,53.5,52.0,29.88,WNW,293,0.7,1.1,95,0.00,,,0.00,WUHU216HW,2013-05-09 10:54:00,
2013-05-09 06:59:00,53.5,52.0,29.88,NW,315,0.2,0.7,95,0.00,,,0.00,WUHU216HW,2013-05-09 10:59:00,
2013-05-09 07:04:00,53.5,52.0,29.87,NW,315,0.7,0.7,95,0.00,,,0.00,WUHU216HW,2013-05-09 11:04:00,
2013-05-09 07:09:00,53.6,52.2,29.87,North,0,1.1,1.1,95,0.00,,,0.00,WUHU216HW,2013-05-09 11:09:00,
2013-05-09 07:14:00,53.8,52.4,29.87,North,0,0.0,1.1,95,0.00,,,0.00,WUHU216HW,2013-05-09 11:14:00,
2013-05-09 07:19:00,54.0,52.6,29.87,North,0,0.0,0.2,95,0.00,,,0.00,WUHU216HW,2013-05-09 11:19:00,
2013-05-09 07:24:00,54.2,52.5,29.87,North,0,0.0,0.2,94,0.00,,,0.00,WUHU216HW,2013-05-09 11:24:00,
2013-05-09 07:29:00,54.4,52.9,29.87,NNW,338,0.4,0.4,95,0.00,,,0.00,WUHU216HW,2013-05-09 11:29:00,
2013-05-09 07:34:00,54.4,52.9,29.87,NNE,23,0.4,0.4,95,0.00,,,0.00,WUHU216HW,2013-05-09 11:34:00,
2013-05-09 07:39:00,54.7,53.0,29.87,NNE,23,0.2,1.1,94,0.00,,,0.00,WUHU216HW,2013-05-09 11:39:00,
2013-05-09 07:44:00,55.1,53.4,29.87,NNE,23,1.6,1.6,94,0.00,,,0.00,WUHU216HW,2013-05-09 11:44:00,
2013-05-09 07:49:00,55.1,53.4,29.87,North,0,0.4,1.6,94,0.00,,,0.00,WUHU216HW,2013-05-09 11:49:00,
2013-05-09 07:54:00,55.3,53.6,29.87,NNE,23,0.2,2.2,94,0.00,,,0.00,WUHU216HW,2013-05-09 11:54:00,
2013-05-09 07:59:00,55.4,53.7,29.87,North,0,0.9,2.2,94,0.00,,,0.00,WUHU216HW,2013-05-09 11:59:00,
2013-05-09 08:04:00,55.8,54.1,29.88,ENE,68,1.6,2.0,94,0.00,,,0.00,WUHU216HW,2013-05-09 12:04:00,
2013-05-09 08:09:00,55.8,54.1,29.88,NW,315,0.0,1.8,94,0.00,,,0.00,WUHU216HW,2013-05-09 12:09:00,
2013-05-09 08:14:00,56.3,54.6,29.88,NE,45,1.6,1.8,94,0.00,,,0.00,WUHU216HW,2013-05-09 12:14:00,
2013-05-09 08:19:00,56.2,54.5,29.88,NNE,23,1.3,1.8,94,0.00,,,0.00,WUHU216HW,2013-05-09 12:19:00,
2013-05-09 08:24:00,56.2,54.5,29.88,NE,45,0.9,1.8,94,0.00,,,0.00,WUHU216HW,2013-05-09 12:24:00,
2013-05-09 08:29:00,56.3,54.6,29.88,NE,45,0.4,1.3,94,0.00,,,0.00,WUHU216HW,2013-05-09 12:29:00,
2013-05-09 08:34:00,56.5,54.8,29.88,NE,45,1.8,4.0,94,0.00,,,0.00,WUHU216HW,2013-05-09 12:34:00,
2013-05-09 08:39:00,56.7,55.0,29.88,NE,45,2.2,4.0,94,0.00,,,0.00,WUHU216HW,2013-05-09 12:39:00,
2013-05-09 08:44:00,56.9,55.2,29.87,NE,45,1.6,4.3,94,0.00,,,0.00,WUHU216HW,2013-05-09 12:44:00,
2013-05-09 08:49:00,57.4,55.7,29.88,ENE,68,2.5,4.3,94,0.00,,,0.00,WUHU216HW,2013-05-09 12:49:00,
2013-05-09 08:54:00,57.8,56.1,29.88,NNE,23,0.7,2.5,94,0.00,,,0.00,WUHU216HW,2013-05-09 12:54:00,
2013-05-09 08:59:00,58.0,56.3,29.88,NE,45,0.0,1.8,94,0.00,,,0.00,WUHU216HW,2013-05-09 12:59:00,
2013-05-09 09:04:00,58.0,56.0,29.88,NE,45,2.5,2.5,93,0.00,,,0.00,WUHU216HW,2013-05-09 13:04:00,
2013-05-09 09:09:00,58.0,56.0,29.88,East,90,1.8,2.5,93,0.00,,,0.00,WUHU216HW,2013-05-09 13:09:00,
2013-05-09 09:14:00,58.0,56.0,29.88,NNE,23,0.9,2.5,93,0.00,,,0.00,WUHU216HW,2013-05-09 13:14:00,
2013-05-09 09:19:00,58.0,56.0,29.87,NE,45,2.5,2.5,93,0.00,,,0.00,WUHU216HW,2013-05-09 13:19:00,
2013-05-09 09:24:00,58.1,56.2,29.88,NE,45,1.3,2.5,93,0.00,,,0.00,WUHU216HW,2013-05-09 13:24:00,
2013-05-09 09:29:00,58.7,56.7,29.87,NE,45,0.9,2.5,93,0.00,,,0.00,WUHU216HW,2013-05-09 13:29:00,
2013-05-09 09:34:00,59.0,57.1,29.87,ENE,68,2.2,2.5,93,0.00,,,0.00,WUHU216HW,2013-05-09 13:34:00,
2013-05-09 09:39:00,59.4,57.4,29.87,NNE,23,0.4,2.5,93,0.00,,,0.00,WUHU216HW,2013-05-09 13:39:00,
2013-05-09 09:44:00,59.6,57.6,29.87,NE,45,1.3,2.5,93,0.00,,,0.00,WUHU216HW,2013-05-09 13:44:00,
2013-05-09 09:49:00,59.4,57.1,29.88,ENE,68,1.6,5.4,92,0.00,,,0.00,WUHU216HW,2013-05-09 13:49:00,
2013-05-09 09:54:00,59.4,57.4,29.88,SE,135,1.3,5.4,93,0.00,,,0.00,WUHU216HW,2013-05-09 13:54:00,
2013-05-09 09:59:00,59.6,57.2,29.87,ENE,68,1.8,4.3,92,0.00,,,0.00,WUHU216HW,2013-05-09 13:59:00,
2013-05-09 10:04:00,59.4,57.1,29.87,NNE,23,3.1,5.6,92,0.00,,,0.00,WUHU216HW,2013-05-09 14:04:00,
2013-05-09 10:09:00,59.6,57.0,29.87,NNW,338,2.0,5.6,91,0.00,,,0.00,WUHU216HW,2013-05-09 14:09:00,
2013-05-09 10:14:00,59.9,57.3,29.87,North,0,0.9,3.4,91,0.00,,,0.00,WUHU216HW,2013-05-09 14:14:00,
2013-05-09 10:19:00,61.0,58.4,29.87,NNE,23,0.4,4.0,91,0.00,,,0.00,WUHU216HW,2013-05-09 14:19:00,
2013-05-09 10:24:00,61.0,58.1,29.87,East,90,3.6,4.0,90,0.00,,,0.00,WUHU216HW,2013-05-09 14:24:00,
2013-05-09 10:29:00,60.8,57.6,29.87,North,0,1.1,3.6,89,0.00,,,0.00,WUHU216HW,2013-05-09 14:29:00,
2013-05-09 10:34:00,60.8,57.6,29.87,SSE,158,1.8,3.6,89,0.00,,,0.00,WUHU216HW,2013-05-09 14:34:00,
2013-05-09 10:39:00,61.2,58.0,29.86,North,0,2.5,2.5,89,0.00,,,0.00,WUHU216HW,2013-05-09 14:39:00,
2013-05-09 10:45:00,60.8,57.6,29.86,SW,225,1.6,2.5,89,0.00,,,0.00,WUHU216HW,2013-05-09 14:45:00,
2013-05-09 10:53:00,60.7,57.2,29.86,NNE,23,2.7,3.4,88,0.00,,,0.00,WUHU216HW,2013-05-09 14:53:00,
2013-05-09 11:04:00,60.5,57.2,29.86,ESE,113,0.9,3.4,89,0.00,,,0.00,WUHU216HW,2013-05-09 15:04:00,
2013-05-09 11:15:00,60.3,56.8,29.86,ENE,68,1.8,3.4,88,0.00,,,0.00,WUHU216HW,2013-05-09 15:15:00,
2013-05-09 11:25:00,60.5,57.2,29.86,North,0,0.4,2.9,89,0.00,,,0.00,WUHU216HW,2013-05-09 15:25:00,
2013-05-09 11:30:00,60.5,57.2,29.86,ENE,68,1.6,2.5,89,0.00,,,0.00,WUHU216HW,2013-05-09 15:30:00,
2013-05-09 11:35:00,60.5,57.0,29.87,ESE,113,1.6,3.4,88,0.00,,,0.00,WUHU216HW,2013-05-09 15:35:00,
2013-05-09 11:40:00,60.8,57.6,29.87,SW,225,0.9,3.4,89,0.00,,,0.00,WUHU216HW,2013-05-09 15:40:00,
2013-05-09 11:45:00,61.0,57.8,29.86,North,0,1.3,1.8,89,0.00,,,0.00,WUHU216HW,2013-05-09 15:45:00,
2013-05-09 11:50:00,60.8,57.3,29.86,ENE,68,1.6,2.2,88,0.00,,,0.00,WUHU216HW,2013-05-09 15:50:00,
2013-05-09 11:55:00,61.2,57.7,29.86,SSE,158,1.6,2.9,88,0.00,,,0.00,WUHU216HW,2013-05-09 15:55:00,
2013-05-09 12:00:00,61.7,57.9,29.86,ESE,113,1.8,3.4,87,0.00,,,0.00,WUHU216HW,2013-05-09 16:00:00,
2013-05-09 12:05:00,63.4,59.5,29.85,ENE,68,2.5,3.4,87,0.00,,,0.00,WUHU216HW,2013-05-09 16:05:00,
2013-05-09 12:10:00,64.4,59.9,29.85,NE,45,1.8,2.5,85,0.00,,,0.00,WUHU216HW,2013-05-09 16:10:00,
2013-05-09 12:15:00,64.1,59.5,29.85,NNE,23,1.1,1.8,85,0.00,,,0.00,WUHU216HW,2013-05-09 16:15:00,
2013-05-09 12:20:00,63.5,59.0,29.85,NE,45,3.4,3.4,85,0.00,,,0.00,WUHU216HW,2013-05-09 16:20:00,
2013-05-09 12:25:00,62.6,58.4,29.85,SE,135,1.1,3.4,86,0.00,,,0.00,WUHU216HW,2013-05-09 16:25:00,
2013-05-09 12:30:00,61.7,57.2,29.85,NE,45,4.7,4.7,85,0.00,,,0.00,WUHU216HW,2013-05-09 16:30:00,
2013-05-09 12:35:00,60.8,57.0,29.84,South,180,1.3,4.7,87,0.00,,,0.00,WUHU216HW,2013-05-09 16:35:00,
2013-05-09 12:40:00,61.0,57.2,29.85,SE,135,1.6,1.8,87,0.00,,,0.00,WUHU216HW,2013-05-09 16:40:00,
2013-05-09 12:45:00,61.2,57.7,29.85,SSE,158,0.4,1.6,88,0.00,,,0.00,WUHU216HW,2013-05-09 16:45:00,
2013-05-09 12:50:00,61.2,57.7,29.85,SSE,158,0.0,1.1,88,0.00,,,0.00,WUHU216HW,2013-05-09 16:50:00,
2013-05-09 12:55:00,61.2,58.0,29.85,SSE,158,0.4,0.4,89,0.00,,,0.00,WUHU216HW,2013-05-09 16:55:00,
2013-05-09 13:00:00,61.0,57.8,29.85,SSE,158,0.0,0.9,89,0.00,,,0.00,WUHU216HW,2013-05-09 17:00:00,
2013-05-09 13:05:00,60.8,57.6,29.85,SSE,158,0.0,0.9,89,0.00,,,0.00,WUHU216HW,2013-05-09 17:05:00,
2013-05-09 13:10:00,60.3,57.1,29.85,North,0,1.1,1.8,89,0.00,,,0.00,WUHU216HW,2013-05-09 17:10:00,
2013-05-09 13:15:00,60.1,56.9,29.85,North,0,0.0,1.8,89,0.00,,,0.00,WUHU216HW,2013-05-09 17:15:00,
2013-05-09 13:20:00,60.1,57.2,29.85,North,0,0.0,0.9,90,0.00,,,0.00,WUHU216HW,2013-05-09 17:20:00,
2013-05-09 13:25:00,59.9,57.1,29.85,North,0,0.0,0.7,90,0.00,,,0.00,WUHU216HW,2013-05-09 17:25:00,
2013-05-09 13:30:00,59.9,57.1,29.85,North,0,0.4,0.4,90,0.00,,,0.00,WUHU216HW,2013-05-09 17:30:00,
2013-05-09 13:35:00,59.8,56.9,29.84,North,0,0.0,0.9,90,0.00,,,0.00,WUHU216HW,2013-05-09 17:35:00,
2013-05-09 13:40:00,59.8,56.9,29.84,North,0,0.0,0.9,90,0.00,,,0.00,WUHU216HW,2013-05-09 17:40:00,
2013-05-09 13:45:00,59.8,56.9,29.84,North,0,0.4,0.9,90,0.00,,,0.00,WUHU216HW,2013-05-09 17:45:00,
2013-05-09 13:50:00,60.1,57.2,29.84,North,0,0.7,1.1,90,0.00,,,0.00,WUHU216HW,2013-05-09 17:50:00,
2013-05-09 13:55:00,60.1,57.2,29.84,NNE,23,0.2,1.1,90,0.00,,,0.00,WUHU216HW,2013-05-09 17:55:00,
2013-05-09 14:00:00,60.5,57.9,29.84,North,0,0.0,1.1,91,0.00,,,0.00,WUHU216HW,2013-05-09 18:00:00,
2013-05-09 14:05:00,60.8,58.2,29.83,North,0,0.0,1.1,91,0.00,,,0.00,WUHU216HW,2013-05-09 18:05:00,
2013-05-09 14:10:00,61.0,58.4,29.83,North,0,0.0,0.4,91,0.00,,,0.00,WUHU216HW,2013-05-09 18:10:00,
2013-05-09 14:15:00,61.0,58.4,29.83,SSE,158,0.0,2.2,91,0.00,,,0.00,WUHU216HW,2013-05-09 18:15:00,
2013-05-09 14:20:00,61.0,58.4,29.83,SSE,158,0.0,2.2,91,0.00,,,0.00,WUHU216HW,2013-05-09 18:20:00,
2013-05-09 14:25:00,61.0,58.4,29.83,SSE,158,0.4,0.9,91,0.00,,,0.00,WUHU216HW,2013-05-09 18:25:00,
2013-05-09 14:30:00,60.8,58.2,29.83,South,180,0.2,0.9,91,0.00,,,0.00,WUHU216HW,2013-05-09 18:30:00,
2013-05-09 14:35:00,60.3,57.7,29.83,WSW,248,0.0,1.8,91,0.00,,,0.00,WUHU216HW,2013-05-09 18:35:00,
2013-05-09 14:40:00,59.8,57.2,29.83,WSW,248,0.0,1.8,91,0.00,,,0.00,WUHU216HW,2013-05-09 18:40:00,
2013-05-09 14:45:00,59.6,57.0,29.83,WSW,248,0.0,0.9,91,0.00,,,0.00,WUHU216HW,2013-05-09 18:45:00,
2013-05-09 14:50:00,59.2,56.6,29.83,NNW,338,0.7,1.3,91,0.00,,,0.00,WUHU216HW,2013-05-09 18:50:00,
2013-05-09 14:55:00,59.0,56.2,29.82,NW,315,0.0,1.3,90,0.00,,,0.00,WUHU216HW,2013-05-09 18:55:00,
2013-05-09 15:00:00,58.7,56.1,29.82,North,0,0.0,0.9,91,0.00,,,0.00,WUHU216HW,2013-05-09 19:00:00,
2013-05-09 15:05:00,59.0,56.7,29.82,NNE,23,0.0,0.4,92,0.00,,,0.00,WUHU216HW,2013-05-09 19:05:00,
2013-05-09 15:10:00,59.6,57.2,29.82,ESE,113,0.0,1.6,92,0.00,,,0.00,WUHU216HW,2013-05-09 19:10:00,
2013-05-09 15:15:00,60.3,58.0,29.82,North,0,0.0,1.8,92,0.00,,,0.00,WUHU216HW,2013-05-09 19:15:00,
2013-05-09 15:20:00,61.2,58.9,29.82,West,270,0.4,2.5,92,0.00,,,0.00,WUHU216HW,2013-05-09 19:20:00,
2013-05-09 15:25:00,61.6,59.2,29.81,WSW,248,0.0,2.5,92,0.00,,,0.00,WUHU216HW,2013-05-09 19:25:00,
2013-05-09 15:30:00,62.1,59.8,29.81,North,0,1.1,1.1,92,0.00,,,0.00,WUHU216HW,2013-05-09 19:30:00,
2013-05-09 15:35:00,61.9,59.6,29.81,SSE,158,1.3,1.3,92,0.00,,,0.00,WUHU216HW,2013-05-09 19:35:00,
2013-05-09 15:41:00,62.6,60.3,29.81,ENE,68,2.2,2.2,92,0.00,,,0.00,WUHU216HW,2013-05-09 19:41:00,
2013-05-09 15:46:00,62.6,60.0,29.81,ENE,68,0.4,2.2,91,0.00,,,0.00,WUHU216HW,2013-05-09 19:46:00,
2013-05-09 15:51:00,62.6,60.0,29.81,ENE,68,0.4,2.2,91,0.00,,,0.00,WUHU216HW,2013-05-09 19:51:00,
2013-05-09 15:56:00,63.2,60.6,29.81,ENE,68,2.5,2.5,91,0.00,,,0.00,WUHU216HW,2013-05-09 19:56:00,
2013-05-09 16:01:00,63.0,60.1,29.81,ENE,68,0.0,2.5,90,0.00,,,0.00,WUHU216HW,2013-05-09 20:01:00,
2013-05-09 16:06:00,63.0,60.1,29.81,North,0,0.4,1.1,90,0.00,,,0.00,WUHU216HW,2013-05-09 20:06:00,
2013-05-09 16:11:00,63.7,60.8,29.81,SW,225,2.0,2.0,90,0.00,,,0.00,WUHU216HW,2013-05-09 20:11:00,
2013-05-09 16:16:00,64.1,61.2,29.81,WSW,248,1.6,2.0,90,0.00,,,0.00,WUHU216HW,2013-05-09 20:16:00,
2013-05-09 16:21:00,64.6,61.8,29.81,WSW,248,1.1,1.8,90,0.00,,,0.00,WUHU216HW,2013-05-09 20:21:00,
2013-05-09 16:26:00,65.2,62.2,29.81,WSW,248,0.0,1.1,90,0.00,,,0.00,WUHU216HW,2013-05-09 20:26:00,
2013-05-09 16:31:00,64.8,61.6,29.82,SSW,203,1.1,1.1,89,0.00,,,0.00,WUHU216HW,2013-05-09 20:31:00,
2013-05-09 16:36:00,64.4,60.8,29.81,SSW,203,1.8,1.8,88,0.00,,,0.00,WUHU216HW,2013-05-09 20:36:00,
2013-05-09 16:41:00,64.3,60.7,29.81,SW,225,0.0,1.8,88,0.00,,,0.00,WUHU216HW,2013-05-09 20:41:00,
2013-05-09 16:46:00,63.9,60.0,29.81,SW,225,0.0,0.9,87,0.00,,,0.00,WUHU216HW,2013-05-09 20:46:00,
2013-05-09 16:51:00,64.1,60.5,29.81,SW,225,0.0,0.4,88,0.00,,,0.00,WUHU216HW,2013-05-09 20:51:00,
2013-05-09 16:56:00,64.1,60.2,29.81,ESE,113,0.0,1.1,87,0.00,,,0.00,WUHU216HW,2013-05-09 20:56:00,
2013-05-09 17:01:00,64.3,60.4,29.81,SSW,203,0.0,1.1,87,0.00,,,0.00,WUHU216HW,2013-05-09 21:01:00,
2013-05-09 17:06:00,64.1,60.2,29.81,WNW,293,0.0,1.1,87,0.00,,,0.00,WUHU216HW,2013-05-09 21:06:00,
2013-05-09 17:11:00,63.9,59.7,29.82,West,270,0.4,0.9,86,0.00,,,0.00,WUHU216HW,2013-05-09 21:11:00,
2013-05-09 17:16:00,63.7,59.5,29.82,West,270,0.0,1.6,86,0.00,,,0.00,WUHU216HW,2013-05-09 21:16:00,
2013-05-09 17:21:00,63.5,59.3,29.81,West,270,0.0,1.6,86,0.00,,,0.00,WUHU216HW,2013-05-09 21:21:00,
2013-05-09 17:26:00,63.2,59.0,29.81,WSW,248,1.1,1.1,86,0.00,,,0.00,WUHU216HW,2013-05-09 21:26:00,
2013-05-09 17:32:00,63.0,58.8,29.81,WSW,248,0.0,1.1,86,0.00,,,0.00,WUHU216HW,2013-05-09 21:32:00,
2013-05-09 17:37:00,63.2,58.6,29.81,WSW,248,0.0,1.1,85,0.00,,,0.00,WUHU216HW,2013-05-09 21:37:00,
2013-05-09 17:42:00,63.4,58.8,29.81,NNW,338,1.1,1.1,85,0.00,,,0.00,WUHU216HW,2013-05-09 21:42:00,
2013-05-09 17:47:00,63.2,58.6,29.82,WSW,248,0.2,1.1,85,0.00,,,0.00,WUHU216HW,2013-05-09 21:47:00,
2013-05-09 17:52:00,63.4,58.8,29.81,WSW,248,0.2,1.3,85,0.00,,,0.00,WUHU216HW,2013-05-09 21:52:00,
2013-05-09 17:57:00,63.7,59.1,29.81,SSW,203,1.8,1.8,85,0.00,,,0.00,WUHU216HW,2013-05-09 21:57:00,
2013-05-09 18:02:00,64.3,59.7,29.82,SW,225,1.1,1.8,85,0.00,,,0.00,WUHU216HW,2013-05-09 22:02:00,
2013-05-09 18:07:00,64.3,59.3,29.81,SSW,203,0.7,1.8,84,0.00,,,0.00,WUHU216HW,2013-05-09 22:07:00,
2013-05-09 18:12:00,64.1,59.1,29.81,SSE,158,0.9,1.8,84,0.00,,,0.00,WUHU216HW,2013-05-09 22:12:00,
2013-05-09 18:17:00,64.1,59.1,29.81,South,180,0.4,2.2,84,0.00,,,0.00,WUHU216HW,2013-05-09 22:17:00,
2013-05-09 18:22:00,64.1,59.1,29.81,South,180,0.4,2.2,84,0.00,,,0.00,WUHU216HW,2013-05-09 22:22:00,
2013-05-09 18:27:00,64.1,59.1,29.81,SSW,203,0.0,2.2,84,0.00,,,0.00,WUHU216HW,2013-05-09 22:27:00,
2013-05-09 18:32:00,64.1,59.1,29.81,SSW,203,0.7,2.2,84,0.00,,,0.00,WUHU216HW,2013-05-09 22:32:00,
2013-05-09 18:37:00,63.7,58.8,29.82,SW,225,0.0,2.0,84,0.00,,,0.00,WUHU216HW,2013-05-09 22:37:00,
2013-05-09 18:42:00,63.5,58.6,29.82,NW,315,0.0,2.0,84,0.00,,,0.00,WUHU216HW,2013-05-09 22:42:00,
2013-05-09 18:47:00,63.2,58.2,29.81,NW,315,0.7,1.1,84,0.00,,,0.00,WUHU216HW,2013-05-09 22:47:00,
2013-05-09 18:52:00,62.8,57.9,29.82,NW,315,0.0,0.7,84,0.00,,,0.00,WUHU216HW,2013-05-09 22:52:00,
2013-05-09 18:57:00,62.5,57.9,29.82,NW,315,0.0,0.0,85,0.00,,,0.00,WUHU216HW,2013-05-09 22:57:00,
2013-05-09 19:02:00,62.3,57.7,29.82,NW,315,0.0,0.0,85,0.00,,,0.00,WUHU216HW,2013-05-09 23:02:00,
2013-05-09 19:07:00,61.9,57.3,29.83,NW,315,0.0,0.0,85,0.00,,,0.00,WUHU216HW,2013-05-09 23:07:00,
2013-05-09 19:12:00,61.7,57.2,29.83,NW,315,0.0,0.0,85,0.00,,,0.00,WUHU216HW,2013-05-09 23:12:00,
2013-05-09 19:17:00,61.4,57.2,29.83,NW,315,0.0,0.0,86,0.00,,,0.00,WUHU216HW,2013-05-09 23:17:00,
2013-05-09 19:22:00,61.0,56.9,29.83,NW,315,0.0,0.0,86,0.00,,,0.00,WUHU216HW,2013-05-09 23:22:00,
2013-05-09 19:27:00,60.8,56.7,29.83,NW,315,0.0,0.0,86,0.00,,,0.00,WUHU216HW,2013-05-09 23:27:00,
2013-05-09 19:32:00,60.7,56.8,29.83,NW,315,0.0,0.0,87,0.00,,,0.00,WUHU216HW,2013-05-09 23:32:00,
2013-05-09 19:37:00,60.3,56.4,29.83,NW,315,0.0,0.0,87,0.00,,,0.00,WUHU216HW,2013-05-09 23:37:00,
2013-05-09 19:42:00,59.9,56.1,29.83,NW,315,0.0,0.0,87,0.00,,,0.00,WUHU216HW,2013-05-09 23:42:00,
2013-05-09 19:47:00,59.8,55.9,29.83,NW,315,0.0,0.0,87,0.00,,,0.00,WUHU216HW,2013-05-09 23:47:00,
2013-05-09 19:52:00,59.4,55.9,29.83,NW,315,0.0,0.0,88,0.00,,,0.00,WUHU216HW,2013-05-09 23:52:00,
2013-05-09 19:57:00,59.2,55.7,29.83,NW,315,0.0,0.0,88,0.00,,,0.00,WUHU216HW,2013-05-09 23:57:00,
2013-05-09 20:02:00,58.9,55.4,29.83,NW,315,0.0,0.0,88,0.00,,,0.00,WUHU216HW,2013-05-10 00:02:00,
2013-05-09 20:07:00,58.7,55.2,29.84,NW,315,0.0,0.0,88,0.00,,,0.00,WUHU216HW,2013-05-10 00:07:00,
2013-05-09 20:12:00,58.3,55.1,29.84,NW,315,0.0,0.0,89,0.00,,,0.00,WUHU216HW,2013-05-10 00:12:00,
2013-05-09 20:17:00,58.1,54.6,29.84,NW,315,0.0,0.0,88,0.00,,,0.00,WUHU216HW,2013-05-10 00:17:00,
2013-05-09 20:22:00,58.0,54.5,29.84,NW,315,0.0,0.0,88,0.00,,,0.00,WUHU216HW,2013-05-10 00:22:00,
2013-05-09 20:27:00,57.6,54.1,29.84,NW,315,0.0,0.0,88,0.00,,,0.00,WUHU216HW,2013-05-10 00:27:00,
2013-05-09 20:32:00,57.4,53.9,29.84,NW,315,0.0,0.0,88,0.00,,,0.00,WUHU216HW,2013-05-10 00:32:00,
2013-05-09 20:37:00,57.4,54.2,29.84,NW,315,0.0,0.0,89,0.00,,,0.00,WUHU216HW,2013-05-10 00:37:00,
2013-05-09 20:42:00,57.2,54.0,29.85,NW,315,0.0,0.0,89,0.00,,,0.00,WUHU216HW,2013-05-10 00:42:00,
2013-05-09 20:47:00,57.2,54.0,29.84,NW,315,0.0,0.0,89,0.00,,,0.00,WUHU216HW,2013-05-10 00:47:00,
2013-05-09 20:52:00,57.1,53.8,29.84,NW,315,0.0,0.0,89,0.00,,,0.00,WUHU216HW,2013-05-10 00:52:00,
2013-05-09 20:57:00,56.9,53.6,29.85,NW,315,0.0,0.0,89,0.00,,,0.00,WUHU216HW,2013-05-10 00:57:00,
2013-05-09 21:02:00,56.9,53.6,29.85,NW,315,0.0,0.0,89,0.00,,,0.00,WUHU216HW,2013-05-10 01:02:00,
2013-05-09 21:07:00,56.9,53.6,29.85,NW,315,0.0,0.0,89,0.00,,,0.00,WUHU216HW,2013-05-10 01:07:00,
2013-05-09 21:12:00,56.9,53.6,29.85,NW,315,0.0,0.0,89,0.00,,,0.00,WUHU216HW,2013-05-10 01:12:00,
2013-05-09 21:17:00,56.9,54.0,29.85,NW,315,0.0,0.0,90,0.00,,,0.00,WUHU216HW,2013-05-10 01:17:00,
2013-05-09 21:22:00,56.9,54.0,29.85,NW,315,0.0,0.0,90,0.00,,,0.00,WUHU216HW,2013-05-10 01:22:00,
2013-05-09 21:27:00,56.7,53.8,29.86,NW,315,0.0,0.0,90,0.00,,,0.00,WUHU216HW,2013-05-10 01:27:00,
2013-05-09 21:32:00,56.7,53.8,29.86,NW,315,0.0,0.0,90,0.00,,,0.00,WUHU216HW,2013-05-10 01:32:00,
2013-05-09 21:37:00,56.9,54.0,29.86,NW,315,0.0,0.0,90,0.00,,,0.00,WUHU216HW,2013-05-10 01:37:00,
2013-05-09 21:42:00,56.9,54.0,29.86,NW,315,0.0,0.0,90,0.00,,,0.00,WUHU216HW,2013-05-10 01:42:00,
2013-05-09 21:47:00,56.9,54.0,29.86,NW,315,0.0,0.0,90,0.00,,,0.00,WUHU216HW,2013-05-10 01:47:00,
2013-05-09 21:52:00,56.7,53.8,29.86,NW,315,0.0,0.0,90,0.00,,,0.00,WUHU216HW,2013-05-10 01:52:00,
2013-05-09 21:57:00,56.5,53.9,29.86,NW,315,0.0,0.0,91,0.00,,,0.00,WUHU216HW,2013-05-10 01:57:00,
2013-05-09 22:02:00,56.3,53.7,29.86,NW,315,0.0,0.0,91,0.00,,,0.00,WUHU216HW,2013-05-10 02:02:00,
2013-05-09 22:07:00,56.2,53.6,29.86,NW,315,0.0,0.0,91,0.00,,,0.00,WUHU216HW,2013-05-10 02:07:00,
2013-05-09 22:12:00,55.8,53.2,29.86,NW,315,0.0,0.0,91,0.00,,,0.00,WUHU216HW,2013-05-10 02:12:00,
2013-05-09 22:17:00,55.4,52.8,29.86,NW,315,0.0,0.0,91,0.00,,,0.00,WUHU216HW,2013-05-10 02:17:00,
2013-05-09 22:22:00,55.3,52.7,29.86,NW,315,0.0,0.0,91,0.00,,,0.00,WUHU216HW,2013-05-10 02:22:00,
2013-05-09 22:27:00,55.1,52.5,29.86,NW,315,0.0,0.0,91,0.00,,,0.00,WUHU216HW,2013-05-10 02:27:00,
2013-05-09 22:32:00,54.9,52.3,29.86,NW,315,0.0,0.0,91,0.00,,,0.00,WUHU216HW,2013-05-10 02:32:00,
2013-05-09 22:37:00,54.7,52.1,29.86,NW,315,0.0,0.0,91,0.00,,,0.00,WUHU216HW,2013-05-10 02:37:00,
2013-05-09 22:42:00,54.5,51.9,29.86,NW,315,0.0,0.0,91,0.00,,,0.00,WUHU216HW,2013-05-10 02:42:00,
2013-05-09 22:47:00,54.4,51.8,29.86,NW,315,0.0,0.0,91,0.00,,,0.00,WUHU216HW,2013-05-10 02:47:00,
2013-05-09 22:52:00,54.4,51.8,29.86,NW,315,0.0,0.0,91,0.00,,,0.00,WUHU216HW,2013-05-10 02:52:00,
2013-05-09 22:57:00,54.0,51.4,29.86,NW,315,0.0,0.0,91,0.00,,,0.00,WUHU216HW,2013-05-10 02:57:00,
2013-05-09 23:02:00,53.8,51.2,29.86,NW,315,0.0,0.0,91,0.00,,,0.00,WUHU216HW,2013-05-10 03:02:00,
2013-05-09 23:07:00,53.6,51.0,29.85,NW,315,0.0,0.0,91,0.00,,,0.00,WUHU216HW,2013-05-10 03:07:00,
2013-05-09 23:12:00,53.6,51.0,29.85,NW,315,0.0,0.0,91,0.00,,,0.00,WUHU216HW,2013-05-10 03:12:00,
2013-05-09 23:17:00,53.5,51.1,29.86,NW,315,0.0,0.0,92,0.00,,,0.00,WUHU216HW,2013-05-10 03:17:00,
2013-05-09 23:22:00,53.3,50.9,29.86,NW,315,0.0,0.0,92,0.00,,,0.00,WUHU216HW,2013-05-10 03:22:00,
2013-05-09 23:27:00,53.1,50.8,29.86,NW,315,0.0,0.0,92,0.00,,,0.00,WUHU216HW,2013-05-10 03:27:00,
2013-05-09 23:32:00,52.9,50.6,29.86,NW,315,0.0,0.0,92,0.00,,,0.00,WUHU216HW,2013-05-10 03:32:00,
2013-05-09 23:37:00,52.7,50.4,29.86,NW,315,0.0,0.0,92,0.00,,,0.00,WUHU216HW,2013-05-10 03:37:00,
2013-05-09 23:42:00,52.7,50.4,29.86,NW,315,0.0,0.0,92,0.00,,,0.00,WUHU216HW,2013-05-10 03:42:00,
2013-05-09 23:47:00,52.6,50.2,29.86,NW,315,0.0,0.0,92,0.00,,,0.00,WUHU216HW,2013-05-10 03:47:00,
2013-05-09 23:52:00,52.4,50.0,29.86,NW,315,0.0,0.0,92,0.00,,,0.00,WUHU216HW,2013-05-10 03:52:00,
2013-05-09 23:57:00,52.6,50.2,29.86,NW,315,0.0,0.0,92,0.00,,,0.00,WUHU216HW,2013-05-10 03:57:00,